Time;durP1;ratioP1;P1;durP2;ratioP2;P2;SDS_P1;SDS_P2;PMS_P1;PMS_P2;Temp;Humidity;BMP_temperature;BMP_pressure;BME280_temperature;BME280_humidity;BME280_pressure;Samples;Min_cycle;Max_cycle;Signal;HPM_P1;HPM_P2
2024/01/21 00:00:51;;;;;;;28.77;12.20;;;;;;;-3.16;60.60;98181.63;4903862;29;20032;-88
2024/01/21 00:03:16;;;;;;;28.27;13.23;;;;;;;-3.12;60.53;98193.16;4883966;29;20039;-87
2024/01/21 00:05:41;;;;;;;28.73;13.10;;;;;;;-3.30;60.88;98159.09;4900133;29;20172;-88
2024/01/21 00:08:07;;;;;;;29.88;14.15;;;;;;;-3.23;60.71;98176.25;4909699;29;20043;-88
2024/01/21 00:10:32;;;;;;;28.67;13.23;;;;;;;-3.18;60.44;98173.31;4903592;29;20043;-87
2024/01/21 00:12:57;;;;;;;34.88;15.60;;;;;;;-3.34;60.46;98152.63;4898794;29;20530;-87
2024/01/21 00:15:23;;;;;;;27.58;14.40;;;;;;;-3.20;60.88;98175.19;4894939;29;20477;-87
2024/01/21 00:17:48;;;;;;;33.28;15.27;;;;;;;-3.06;59.30;98171.44;4896974;29;20557;-87
2024/01/21 00:20:14;;;;;;;32.33;15.25;;;;;;;-3.17;59.32;98174.09;4913186;29;20234;-87
2024/01/21 00:22:40;;;;;;;33.90;14.63;;;;;;;-3.19;59.85;98181.88;4905622;29;20083;-88
2024/01/21 00:25:09;;;;;;;31.05;15.07;;;;;;;-3.46;59.24;98150.22;4894300;29;20100;-88
2024/01/21 00:27:36;;;;;;;33.53;15.68;;;;;;;-3.41;59.68;98163.34;4880079;29;20062;-87
2024/01/21 00:30:05;;;;;;;35.53;14.63;;;;;;;-3.38;59.65;98172.47;4904122;29;20043;-88
2024/01/21 00:32:30;;;;;;;28.15;12.50;;;;;;;-3.45;60.44;98161.19;4896496;29;20318;-87
2024/01/21 00:34:56;;;;;;;32.78;13.98;;;;;;;-3.38;60.41;98167.38;4894014;29;20107;-87
2024/01/21 00:37:21;;;;;;;32.95;14.57;;;;;;;-3.45;60.26;98167.09;4893473;29;20048;-87
2024/01/21 00:39:46;;;;;;;31.90;15.13;;;;;;;-3.54;60.30;98159.44;4920777;29;20036;-87
2024/01/21 00:42:12;;;;;;;31.63;14.55;;;;;;;-3.44;60.34;98162.81;4906235;29;20043;-87
2024/01/21 00:44:37;;;;;;;30.75;15.05;;;;;;;-3.48;59.38;98154.63;4891329;29;20035;-88
2024/01/21 00:47:03;;;;;;;28.13;13.23;;;;;;;-3.48;59.43;98164.00;4880093;29;20064;-87
2024/01/21 00:49:29;;;;;;;33.78;13.43;;;;;;;-3.70;59.71;98132.75;4885053;29;20469;-87
2024/01/21 00:51:55;;;;;;;33.55;14.95;;;;;;;-3.86;60.26;98124.78;4909689;29;20524;-87
2024/01/21 00:54:21;;;;;;;35.28;14.77;;;;;;;-3.74;60.12;98140.75;4908038;29;20038;-87
2024/01/21 00:56:49;;;;;;;31.30;13.77;;;;;;;-3.60;59.65;98148.03;4909105;29;20036;-87
2024/01/21 00:59:15;;;;;;;29.92;12.80;;;;;;;-3.62;59.89;98150.69;4873954;29;20042;-87
2024/01/21 01:01:40;;;;;;;27.58;12.15;;;;;;;-3.67;59.61;98147.72;4910118;29;20039;-87
2024/01/21 01:04:06;;;;;;;32.50;13.45;;;;;;;-3.73;59.37;98148.28;4893026;29;20036;-87
2024/01/21 01:06:32;;;;;;;27.85;12.65;;;;;;;-3.87;59.55;98116.34;4890174;29;20061;-87
2024/01/21 01:08:57;;;;;;;22.02;10.63;;;;;;;-3.75;59.09;98145.06;4911394;29;20024;-87
2024/01/21 01:11:24;;;;;;;21.90;10.95;;;;;;;-3.88;59.71;98137.63;4887994;29;20101;-87
2024/01/21 01:13:50;;;;;;;22.63;10.77;;;;;;;-3.83;59.50;98142.34;4903760;29;20457;-87
2024/01/21 01:16:15;;;;;;;23.25;11.45;;;;;;;-3.81;59.76;98171.00;4899342;29;20373;-87
2024/01/21 01:18:40;;;;;;;30.50;14.00;;;;;;;-3.89;60.15;98165.75;4912244;29;20036;-87
2024/01/21 01:21:06;;;;;;;27.90;13.13;;;;;;;-4.01;60.48;98168.38;4906105;29;20123;-87
2024/01/21 01:23:31;;;;;;;27.63;13.82;;;;;;;-4.06;60.88;98157.78;4899120;29;20051;-88
2024/01/21 01:25:56;;;;;;;29.23;13.35;;;;;;;-4.01;59.83;98170.94;4883292;29;20509;-87
2024/01/21 01:28:22;;;;;;;24.88;11.82;;;;;;;-3.98;60.82;98173.19;4885846;29;20104;-87
2024/01/21 01:30:47;;;;;;;18.50;9.43;;;;;;;-4.02;59.22;98171.06;4899737;29;20063;-87
2024/01/21 01:33:13;;;;;;;20.55;10.35;;;;;;;-4.08;60.39;98169.81;4885019;29;20362;-87
2024/01/21 01:35:38;;;;;;;23.23;10.70;;;;;;;-4.13;59.87;98166.84;4893779;29;20136;-87
2024/01/21 01:38:05;;;;;;;29.80;12.45;;;;;;;-4.24;60.08;98149.94;4897135;29;20083;-87
2024/01/21 01:40:31;;;;;;;29.48;12.90;;;;;;;-4.06;60.48;98167.97;4885975;29;20035;-87
2024/01/21 01:42:58;;;;;;;33.90;14.23;;;;;;;-4.03;59.65;98162.59;4925963;29;20046;-87
2024/01/21 01:45:24;;;;;;;26.30;10.70;;;;;;;-4.09;60.35;98139.44;4900707;29;20520;-88
2024/01/21 01:47:50;;;;;;;30.38;11.18;;;;;;;-3.98;59.94;98155.41;4913514;29;20059;-88
2024/01/21 01:50:16;;;;;;;30.75;12.57;;;;;;;-3.98;60.14;98150.31;4896087;29;20328;-88
2024/01/21 01:52:42;;;;;;;23.73;11.15;;;;;;;-3.93;60.14;98157.56;4907755;29;20032;-88
2024/01/21 01:55:08;;;;;;;25.27;10.98;;;;;;;-4.06;59.35;98140.00;4894482;29;20552;-89
2024/01/21 01:57:33;;;;;;;24.73;10.30;;;;;;;-4.02;60.49;98143.88;4884478;29;20046;-89
2024/01/21 01:59:59;;;;;;;23.92;10.27;;;;;;;-3.90;60.13;98151.44;4899882;29;20032;-88
2024/01/21 02:02:24;;;;;;;26.25;10.70;;;;;;;-3.84;59.70;98150.91;4920148;29;20043;-88
2024/01/21 02:04:49;;;;;;;26.23;11.70;;;;;;;-4.00;60.72;98136.13;4906549;29;20124;-89
2024/01/21 02:07:15;;;;;;;30.40;12.40;;;;;;;-4.03;60.17;98123.66;4904143;29;20048;-89
2024/01/21 02:09:40;;;;;;;26.02;11.18;;;;;;;-4.03;60.49;98116.81;4879349;29;20080;-89
2024/01/21 02:12:06;;;;;;;31.00;12.70;;;;;;;-4.05;60.31;98112.81;4917378;29;20044;-88
2024/01/21 02:14:31;;;;;;;34.33;13.98;;;;;;;-4.01;60.31;98121.78;4888590;29;20444;-88
2024/01/21 02:16:56;;;;;;;36.03;14.77;;;;;;;-4.15;60.05;98116.13;4914614;29;20040;-88
2024/01/21 02:19:26;;;;;;;33.47;14.65;;;;;;;-3.97;59.80;98116.31;4900374;29;20039;-88
2024/01/21 02:21:53;;;;;;;34.72;13.27;;;;;;;-4.00;60.33;98116.56;4912028;29;20547;-88
2024/01/21 02:24:18;;;;;;;30.67;13.10;;;;;;;-3.90;59.90;98115.81;4896521;29;20364;-88
2024/01/21 02:26:44;;;;;;;33.50;12.18;;;;;;;-3.89;59.30;98114.84;4904207;29;20077;-88
2024/01/21 02:29:09;;;;;;;25.15;11.75;;;;;;;-3.83;59.05;98111.81;4889322;29;20075;-86
2024/01/21 02:31:34;;;;;;;26.88;11.40;;;;;;;-3.88;58.91;98104.56;4913696;29;20056;-88
2024/01/21 02:34:00;;;;;;;21.98;9.73;;;;;;;-4.10;58.26;98087.75;4919513;29;20032;-88
2024/01/21 02:36:25;;;;;;;24.90;10.57;;;;;;;-4.02;58.63;98098.09;4900581;29;20110;-88
2024/01/21 02:38:50;;;;;;;20.48;9.45;;;;;;;-4.10;58.82;98094.59;4890038;29;20035;-88
2024/01/21 02:41:16;;;;;;;19.80;8.88;;;;;;;-4.16;59.43;98090.81;4900914;29;20047;-88
2024/01/21 02:43:41;;;;;;;19.15;8.00;;;;;;;-4.10;58.94;98100.47;4885457;29;20481;-88
2024/01/21 02:46:06;;;;;;;20.58;8.88;;;;;;;-4.07;59.00;98097.66;4905225;29;20032;-88
2024/01/21 02:48:32;;;;;;;19.23;8.68;;;;;;;-4.16;58.80;98073.81;4879016;29;20127;-88
2024/01/21 02:50:57;;;;;;;19.05;8.88;;;;;;;-4.06;58.84;98101.84;4909501;29;20033;-88
2024/01/21 02:53:22;;;;;;;18.30;7.75;;;;;;;-4.15;58.96;98098.31;4900667;29;20533;-88
2024/01/21 02:55:48;;;;;;;20.05;8.50;;;;;;;-4.28;58.77;98081.66;4882331;29;20043;-88
2024/01/21 02:58:13;;;;;;;19.52;9.40;;;;;;;-4.17;58.88;98109.53;4904094;29;20036;-88
2024/01/21 03:00:39;;;;;;;19.35;9.07;;;;;;;-4.10;59.20;98099.66;4899280;29;20135;-88
2024/01/21 03:03:04;;;;;;;19.60;9.13;;;;;;;-4.21;59.31;98086.09;4916501;29;20036;-87
2024/01/21 03:05:29;;;;;;;17.70;8.00;;;;;;;-4.34;58.84;98078.69;4880016;29;20039;-88
2024/01/21 03:07:55;;;;;;;18.20;7.63;;;;;;;-4.31;59.89;98082.72;4865815;29;20031;-87
2024/01/21 03:10:20;;;;;;;17.60;7.40;;;;;;;-4.37;58.61;98060.34;4915165;29;21517;-88
2024/01/21 03:12:45;;;;;;;15.25;7.30;;;;;;;-4.28;59.22;98084.19;4870770;29;20036;-88
2024/01/21 03:15:11;;;;;;;18.90;8.20;;;;;;;-4.33;59.05;98065.06;4909564;29;20359;-88
2024/01/21 03:17:36;;;;;;;16.58;6.80;;;;;;;-4.25;58.81;98072.06;4927124;29;20059;-88
2024/01/21 03:20:02;;;;;;;17.25;8.18;;;;;;;-4.50;59.03;98044.53;4884944;29;20278;-88
2024/01/21 03:22:27;;;;;;;15.80;6.95;;;;;;;-4.33;58.41;98067.59;4916228;29;20083;-88
2024/01/21 03:24:53;;;;;;;20.42;7.13;;;;;;;-4.38;58.00;98062.09;4879903;29;20032;-88
2024/01/21 03:27:18;;;;;;;17.17;7.53;;;;;;;-4.36;58.08;98070.38;4914204;29;20413;-88
2024/01/21 03:29:44;;;;;;;16.02;8.55;;;;;;;-4.35;57.88;98077.09;4911622;29;20032;-88
2024/01/21 03:32:09;;;;;;;16.25;7.68;;;;;;;-4.37;57.57;98081.50;4866262;29;20036;-87
2024/01/21 03:34:41;;;;;;;14.50;6.93;;;;;;;-4.58;59.16;98058.66;4886091;29;20093;-88
2024/01/21 03:37:07;;;;;;;16.25;7.47;;;;;;;-4.42;59.29;98080.25;4886930;29;20548;-88
2024/01/21 03:39:32;;;;;;;16.27;7.75;;;;;;;-4.59;59.26;98056.22;4876264;29;20128;-87
2024/01/21 03:41:58;;;;;;;17.77;8.65;;;;;;;-4.40;58.40;98086.03;4912174;29;20099;-88
2024/01/21 03:44:24;;;;;;;17.98;8.18;;;;;;;-4.44;58.47;98080.38;4900387;29;20071;-88
2024/01/21 03:46:49;;;;;;;19.00;8.73;;;;;;;-4.57;59.58;98092.50;4906361;29;20044;-88
2024/01/21 03:49:15;;;;;;;15.60;8.70;;;;;;;-4.76;59.46;98065.25;4909758;29;20411;-88
2024/01/21 03:51:40;;;;;;;18.23;8.60;;;;;;;-4.52;59.40;98106.44;4905493;29;20063;-88
2024/01/21 03:54:05;;;;;;;18.05;8.63;;;;;;;-4.54;59.12;98097.31;4923186;29;20040;-88
2024/01/21 03:56:31;;;;;;;16.58;7.35;;;;;;;-4.63;58.80;98083.63;4884604;29;20051;-88
2024/01/21 03:58:56;;;;;;;16.23;8.52;;;;;;;-4.51;58.48;98104.69;4905592;29;20083;-87
2024/01/21 04:01:21;;;;;;;17.92;8.73;;;;;;;-4.56;58.73;98096.63;4902552;29;20047;-88
2024/01/21 04:03:47;;;;;;;14.77;7.72;;;;;;;-4.42;59.00;98106.50;4919250;29;20473;-88
2024/01/21 04:06:12;;;;;;;17.55;8.13;;;;;;;-4.42;59.27;98098.88;4911995;29;20469;-88
2024/01/21 04:08:37;;;;;;;20.13;7.65;;;;;;;-4.29;59.51;98111.34;4894131;29;20639;-87
2024/01/21 04:11:03;;;;;;;17.77;8.38;;;;;;;-4.37;60.55;98089.13;4916393;29;20532;-88
2024/01/21 04:13:28;;;;;;;22.15;9.75;;;;;;;-4.08;60.59;98113.06;4882589;29;20087;-88
2024/01/21 04:15:54;;;;;;;22.05;9.77;;;;;;;-3.99;60.40;98102.94;4885931;29;20118;-88
2024/01/21 04:18:19;;;;;;;19.85;9.40;;;;;;;-3.84;60.90;98111.00;4907052;29;20064;-89
2024/01/21 04:20:44;;;;;;;21.73;10.02;;;;;;;-3.87;60.97;98087.53;4911498;29;20032;-89
2024/01/21 04:23:10;;;;;;;22.58;11.38;;;;;;;-3.72;60.57;98098.97;4904871;29;20031;-88
2024/01/21 04:25:35;;;;;;;21.13;10.40;;;;;;;-3.65;60.64;98105.16;4911354;29;20064;-88
2024/01/21 04:28:00;;;;;;;24.27;10.77;;;;;;;-3.47;60.78;98118.03;4900901;29;20489;-87
2024/01/21 04:30:26;;;;;;;25.15;10.93;;;;;;;-3.66;60.32;98082.38;4920035;29;20040;-88
2024/01/21 04:32:51;;;;;;;20.98;9.52;;;;;;;-3.46;60.47;98118.84;4885500;29;20028;-88
2024/01/21 04:35:17;;;;;;;27.88;11.90;;;;;;;-3.38;62.10;98129.19;4912082;29;20027;-88
2024/01/21 04:37:42;;;;;;;24.48;11.82;;;;;;;-3.37;61.61;98118.06;4860112;29;20036;-88
2024/01/21 04:40:08;;;;;;;27.63;13.65;;;;;;;-3.45;62.00;98084.81;4915807;29;20047;-88
2024/01/21 04:42:33;;;;;;;28.13;12.32;;;;;;;-3.32;62.40;98089.66;4893569;29;20488;-87
2024/01/21 04:44:59;;;;;;;25.38;11.73;;;;;;;-3.24;61.77;98074.50;4871891;29;20024;-88
2024/01/21 04:47:24;;;;;;;28.60;13.13;;;;;;;-3.07;62.38;98106.13;4922744;29;20064;-87
2024/01/21 04:49:49;;;;;;;30.88;12.88;;;;;;;-3.14;61.95;98097.44;4903717;29;20095;-88
2024/01/21 04:52:15;;;;;;;25.48;10.82;;;;;;;-3.13;61.60;98078.69;4904032;29;20028;-88
2024/01/21 04:54:40;;;;;;;28.30;12.13;;;;;;;-3.21;61.96;98077.59;4909776;29;20032;-87
2024/01/21 04:57:06;;;;;;;29.35;12.73;;;;;;;-3.14;61.58;98080.41;4923061;29;20056;-87
2024/01/21 04:59:31;;;;;;;25.67;11.85;;;;;;;-3.06;61.45;98075.44;4927950;29;20047;-87
2024/01/21 05:01:56;;;;;;;25.35;11.13;;;;;;;-3.21;61.52;98041.13;4947560;29;20199;-87
2024/01/21 05:04:23;;;;;;;24.20;10.85;;;;;;;-2.92;62.29;98071.66;4924504;29;20051;-87
2024/01/21 05:06:48;;;;;;;26.00;11.75;;;;;;;-2.91;61.59;98070.75;4908355;29;20039;-88
2024/01/21 05:09:14;;;;;;;24.50;10.68;;;;;;;-2.92;61.79;98070.88;4924473;29;20036;-88
2024/01/21 05:11:39;;;;;;;24.58;11.05;;;;;;;-2.92;61.91;98065.78;4936072;29;20140;-89
2024/01/21 05:14:04;;;;;;;22.45;10.77;;;;;;;-2.85;61.94;98069.38;4890880;29;20032;-88
2024/01/21 05:16:30;;;;;;;24.75;11.50;;;;;;;-2.80;61.40;98064.69;4893332;29;20032;-87
2024/01/21 05:18:56;;;;;;;24.08;12.10;;;;;;;-2.89;61.90;98045.91;4886813;29;20149;-87
2024/01/21 05:21:21;;;;;;;27.50;11.05;;;;;;;-2.77;61.82;98058.53;4929229;29;20039;-87
2024/01/21 05:23:48;;;;;;;27.02;11.80;;;;;;;-2.95;61.78;98040.56;4908612;29;20047;-87
2024/01/21 05:26:14;;;;;;;30.60;12.38;;;;;;;-2.95;62.23;98038.81;4899140;29;20028;-87
2024/01/21 05:28:40;;;;;;;24.75;10.88;;;;;;;-2.88;62.15;98042.44;4929568;29;20039;-87
2024/01/21 05:31:05;;;;;;;24.27;10.68;;;;;;;-2.74;61.97;98055.66;4899901;29;20632;-87
2024/01/21 05:33:30;;;;;;;21.05;10.20;;;;;;;-2.66;61.92;98051.50;4910732;29;20044;-87
2024/01/21 05:35:56;;;;;;;23.33;10.20;;;;;;;-2.69;61.01;98046.69;4913528;29;20084;-88
2024/01/21 05:38:21;;;;;;;22.63;10.43;;;;;;;-2.99;60.31;98012.00;4918724;29;20535;-87
2024/01/21 05:40:46;;;;;;;21.00;10.30;;;;;;;-2.87;59.86;98048.34;4918067;29;20034;-87
2024/01/21 05:43:12;;;;;;;22.30;10.27;;;;;;;-2.95;60.53;98050.75;4923121;29;20036;-87
2024/01/21 05:45:37;;;;;;;19.65;9.35;;;;;;;-3.05;61.00;98040.56;4925532;29;20036;-88
2024/01/21 05:48:03;;;;;;;23.25;10.05;;;;;;;-3.07;61.55;98027.16;4909399;29;20037;-87
2024/01/21 05:50:28;;;;;;;21.60;9.68;;;;;;;-2.84;60.99;98036.13;4920000;29;20036;-86
2024/01/21 05:52:54;;;;;;;22.48;9.35;;;;;;;-2.70;61.10;98039.19;4904392;29;20095;-87
2024/01/21 05:55:19;;;;;;;19.95;9.82;;;;;;;-2.74;60.03;98028.47;4904336;29;20468;-88
2024/01/21 05:57:45;;;;;;;23.42;10.25;;;;;;;-2.71;59.77;98040.09;4895549;29;20032;-88
2024/01/21 06:00:10;;;;;;;18.60;10.23;;;;;;;-2.82;59.83;98039.31;4923097;29;20032;-87
2024/01/21 06:02:36;;;;;;;17.77;8.88;;;;;;;-2.88;59.02;98031.44;4910058;29;20512;-87
2024/01/21 06:05:01;;;;;;;20.10;9.73;;;;;;;-2.91;60.03;98050.34;4899865;29;20035;-88
2024/01/21 06:07:27;;;;;;;20.58;9.65;;;;;;;-3.16;59.04;98031.34;4908574;29;20046;-87
2024/01/21 06:09:52;;;;;;;20.27;8.77;;;;;;;-3.15;59.79;98037.22;4901845;29;20448;-87
2024/01/21 06:12:17;;;;;;;18.90;9.02;;;;;;;-3.02;60.33;98070.88;4925481;29;20096;-87
2024/01/21 06:14:45;;;;;;;19.52;9.30;;;;;;;-3.11;60.23;98041.13;4916062;29;20039;-87
2024/01/21 06:17:10;;;;;;;20.88;9.02;;;;;;;-3.00;60.12;98061.34;4930358;29;20074;-87
2024/01/21 06:19:36;;;;;;;23.65;10.35;;;;;;;-3.01;60.38;98063.09;4926526;29;20040;-88
2024/01/21 06:22:01;;;;;;;21.70;9.52;;;;;;;-3.02;60.76;98068.31;4941067;29;20160;-87
2024/01/21 06:24:27;;;;;;;20.38;9.43;;;;;;;-3.11;61.36;98051.31;4883171;29;20032;-87
2024/01/21 06:26:52;;;;;;;20.35;9.25;;;;;;;-2.90;61.30;98074.09;4925209;29;20096;-88
2024/01/21 06:29:18;;;;;;;22.27;9.93;;;;;;;-2.71;61.03;98070.69;4915523;29;20029;-88
2024/01/21 06:31:43;;;;;;;18.98;8.93;;;;;;;-2.84;61.65;98053.97;4917762;29;20028;-88
2024/01/21 06:34:08;;;;;;;24.13;10.07;;;;;;;-2.60;61.37;98073.09;4915211;29;20075;-89
2024/01/21 06:36:34;;;;;;;26.02;11.10;;;;;;;-2.53;61.48;98075.91;4930405;29;20032;-88
2024/01/21 06:38:59;;;;;;;23.30;11.00;;;;;;;-2.42;60.71;98074.91;4899532;29;20145;-87
2024/01/21 06:41:25;;;;;;;25.70;10.40;;;;;;;-2.48;61.39;98066.88;4915956;29;20075;-89
2024/01/21 06:43:50;;;;;;;21.45;9.63;;;;;;;-2.35;62.10;98075.97;4900432;29;20040;-89
2024/01/21 06:46:16;;;;;;;21.90;9.57;;;;;;;-2.35;62.18;98066.56;4887150;29;20392;-89
2024/01/21 06:48:41;;;;;;;20.38;9.63;;;;;;;-2.18;61.81;98070.13;4901289;29;20036;-88
2024/01/21 06:51:11;;;;;;;23.55;9.55;;;;;;;-2.02;62.34;98077.19;4875134;29;20031;-88
2024/01/21 06:53:37;;;;;;;22.50;9.55;;;;;;;-2.02;62.52;98048.28;4908382;29;20032;-88
2024/01/21 06:56:07;;;;;;;19.73;8.25;;;;;;;-1.80;63.46;98067.50;4914350;29;20033;-88
2024/01/21 06:58:36;;;;;;;23.00;9.90;;;;;;;-1.90;63.95;98060.72;4910385;29;20480;-88
2024/01/21 07:01:01;;;;;;;23.67;8.57;;;;;;;-1.46;64.40;98074.56;4867325;29;20040;-90
2024/01/21 07:03:28;;;;;;;22.30;9.63;;;;;;;-1.52;63.15;98037.66;4872385;29;20047;-91
2024/01/21 07:05:53;;;;;;;20.95;8.23;;;;;;;-1.25;63.55;98071.72;4895812;29;20036;-91
2024/01/21 07:08:19;;;;;;;21.42;8.50;;;;;;;-1.07;62.99;98075.06;4908593;29;20039;-90
2024/01/21 07:10:44;;;;;;;22.35;10.40;;;;;;;-1.03;62.78;98063.63;4897785;29;20138;-89
2024/01/21 07:13:10;;;;;;;21.00;9.48;;;;;;;-1.01;63.00;98066.81;4882836;29;20576;-90
2024/01/21 07:15:36;;;;;;;19.83;9.13;;;;;;;-0.90;62.97;98070.88;4902630;29;20041;-91
2024/01/21 07:18:03;;;;;;;21.17;8.88;;;;;;;-0.78;63.17;98090.13;4919234;29;20531;-90
2024/01/21 07:20:28;;;;;;;21.63;8.65;;;;;;;-0.85;63.36;98088.34;4912753;29;20044;-90
2024/01/21 07:22:55;;;;;;;22.08;9.23;;;;;;;-0.83;63.15;98082.09;4890574;29;20366;-89
2024/01/21 07:25:21;;;;;;;19.13;8.77;;;;;;;-0.69;63.04;98096.09;4910847;29;20032;-90
2024/01/21 07:27:47;;;;;;;24.95;9.30;;;;;;;-0.66;62.87;98098.38;4924129;29;20043;-90
2024/01/21 07:32:47;;;;;;;;;;;;;;;-0.37;63.55;98092.16;5073462;23;20056;-89
2024/01/21 07:37:46;;;;;;;20.73;9.65;;;;;;;-0.53;63.50;98090.31;4961457;28;19923;-89
2024/01/21 07:40:12;;;;;;;21.42;8.48;;;;;;;-0.40;63.73;98102.69;5145448;23;20052;-89
2024/01/21 07:42:38;;;;;;;18.23;7.90;;;;;;;-0.33;63.34;98119.03;4915048;29;20043;-88
2024/01/21 07:45:04;;;;;;;20.67;9.05;;;;;;;-0.39;63.52;98110.22;4930620;29;20019;-88
2024/01/21 07:47:29;;;;;;;20.60;9.38;;;;;;;-0.37;63.37;98117.75;4911971;29;20015;-88
2024/01/21 07:49:55;;;;;;;20.05;8.77;;;;;;;-0.39;64.71;98114.53;5124181;23;20063;-89
2024/01/21 07:54:53;;;;;;;19.17;8.25;;;;;;;-0.21;64.04;98092.25;4947685;28;20064;-89
2024/01/21 07:57:19;;;;;;;19.05;8.85;;;;;;;-0.05;63.91;98111.19;4933717;29;20328;-89
2024/01/21 07:59:44;;;;;;;22.17;9.07;;;;;;;-0.11;63.97;98096.44;4943949;28;20060;-88
2024/01/21 08:02:10;;;;;;;22.10;9.52;;;;;;;-0.16;63.96;98083.31;4926039;29;20028;-90
2024/01/21 08:04:36;;;;;;;22.13;8.63;;;;;;;-0.03;63.83;98094.72;4927010;29;20036;-88
2024/01/21 08:07:02;;;;;;;22.08;9.52;;;;;;;0.06;64.87;98116.03;4932036;29;20504;-89
2024/01/21 08:09:28;;;;;;;32.03;9.90;;;;;;;0.04;63.96;98109.47;4949642;28;20027;-89
2024/01/21 08:11:53;;;;;;;19.10;9.13;;;;;;;-0.02;64.15;98108.31;4929859;29;20030;-91
2024/01/21 08:14:19;;;;;;;21.15;9.25;;;;;;;0.04;64.58;98114.59;4927439;29;20063;-91
2024/01/21 08:16:44;;;;;;;19.95;8.90;;;;;;;0.23;64.01;98127.16;4924133;29;20031;-90
2024/01/21 08:19:10;;;;;;;19.77;8.43;;;;;;;0.17;63.65;98117.50;4904401;29;20042;-91
2024/01/21 08:21:36;;;;;;;20.80;9.23;;;;;;;0.40;63.87;98140.81;4925272;29;20134;-90
2024/01/21 08:24:02;;;;;;;22.15;9.82;;;;;;;0.28;64.73;98132.59;4899682;29;20281;-89
2024/01/21 08:26:27;;;;;;;21.48;10.18;;;;;;;0.33;64.57;98114.22;5011301;23;20052;-90
2024/01/21 08:28:53;;;;;;;19.15;9.00;;;;;;;0.34;64.51;98095.31;4915298;29;20044;-91
2024/01/21 08:41:35;;;;;;;17.90;8.00;;;;;;;0.82;63.40;98101.50;4971317;28;19965;-89
2024/01/21 08:44:04;;;;;;;19.90;9.23;;;;;;;0.91;63.12;98103.13;4943517;28;20038;-90
2024/01/21 08:46:30;;;;;;;20.85;9.05;;;;;;;0.79;62.36;98098.44;4932598;29;20036;-90
2024/01/21 08:48:56;;;;;;;18.90;9.18;;;;;;;0.83;63.05;98110.78;4940960;28;20066;-90
2024/01/21 08:51:21;;;;;;;20.38;9.90;;;;;;;0.67;62.68;98087.69;4951142;28;20487;-90
2024/01/21 08:53:47;;;;;;;19.27;9.57;;;;;;;0.86;62.93;98123.31;4936649;28;20031;-90
2024/01/21 08:56:13;;;;;;;22.20;9.05;;;;;;;0.83;63.60;98126.19;4925500;28;20053;-89
2024/01/21 08:58:38;;;;;;;20.27;8.50;;;;;;;0.99;63.57;98143.34;4923283;28;20586;-90
2024/01/21 09:01:04;;;;;;;18.85;9.55;;;;;;;0.92;63.20;98129.56;4915195;28;20027;-90
2024/01/21 09:03:30;;;;;;;21.00;9.43;;;;;;;0.95;63.66;98136.13;4925497;28;20037;-89
2024/01/21 09:05:56;;;;;;;18.42;9.10;;;;;;;0.97;63.42;98129.09;4943062;28;20249;-90
2024/01/21 09:08:22;;;;;;;15.73;8.18;;;;;;;0.97;63.42;98135.00;4930908;28;20078;-90
2024/01/21 09:10:51;;;;;;;18.35;8.48;;;;;;;1.24;63.30;98158.75;4921078;28;20039;-91
2024/01/21 09:13:17;;;;;;;17.90;8.80;;;;;;;1.30;63.47;98153.78;4936471;28;20070;-89
2024/01/21 09:15:42;;;;;;;17.17;7.97;;;;;;;1.06;64.36;98105.03;4933752;28;20062;-90
2024/01/21 09:18:08;;;;;;;17.23;9.30;;;;;;;1.20;63.66;98096.72;4935606;28;20463;-90
2024/01/21 09:20:34;;;;;;;21.02;8.40;;;;;;;1.08;63.79;98065.47;4936341;28;20031;-90
2024/01/21 09:23:00;;;;;;;15.63;7.93;;;;;;;1.20;64.04;98081.31;4922229;28;20256;-89
2024/01/21 09:25:29;;;;;;;18.73;8.63;;;;;;;1.30;63.89;98076.81;4907823;28;20063;-89
2024/01/21 09:27:55;;;;;;;16.40;8.48;;;;;;;1.20;63.95;98072.81;4946142;28;20064;-90
2024/01/21 09:30:36;;;;;;;19.95;8.32;;;;;;;1.27;63.92;98060.97;4913994;29;20483;-90
2024/01/21 09:33:22;;;;;;;18.80;8.75;;;;;;;1.87;62.71;98129.00;4930508;29;20028;-90
2024/01/21 09:35:49;;;;;;;15.82;7.00;;;;;;;1.78;62.50;98141.06;4935899;28;20122;-90
2024/01/21 09:38:18;;;;;;;20.67;9.10;;;;;;;1.65;63.03;98144.13;4928767;28;20395;-89
2024/01/21 09:40:46;;;;;;;17.83;8.20;;;;;;;1.69;63.29;98163.34;4937626;28;20031;-89
2024/01/21 09:43:13;;;;;;;14.30;7.30;;;;;;;1.83;62.75;98213.28;4905711;28;20027;-89
2024/01/21 09:45:40;;;;;;;17.17;8.68;;;;;;;1.78;62.79;98210.38;4928093;29;20032;-89
2024/01/21 09:48:06;;;;;;;17.90;7.78;;;;;;;1.77;62.81;98226.75;4932257;28;20023;-90
2024/01/21 09:50:33;;;;;;;16.52;7.40;;;;;;;1.75;63.50;98235.56;4962281;28;20091;-90
2024/01/21 09:52:58;;;;;;;15.98;8.40;;;;;;;1.87;63.87;98272.81;5066423;23;20043;-90
2024/01/21 09:57:59;;;;;;;16.63;7.95;;;;;;;2.17;62.85;98291.06;4958470;28;20419;-89
2024/01/21 10:00:24;;;;;;;16.10;8.45;;;;;;;2.06;63.29;98280.16;4919928;29;20027;-89
2024/01/21 10:02:50;;;;;;;14.85;7.68;;;;;;;2.11;62.96;98278.88;4902066;29;20050;-88
2024/01/21 10:05:16;;;;;;;19.05;8.27;;;;;;;2.05;62.66;98265.72;4903018;29;20148;-89
2024/01/21 10:07:43;;;;;;;16.05;8.18;;;;;;;2.05;63.83;98249.50;4902310;29;20032;-89
2024/01/21 10:10:12;;;;;;;17.40;7.97;;;;;;;2.14;63.45;98269.09;4921271;29;20246;-89
2024/01/21 10:12:37;;;;;;;15.68;8.18;;;;;;;2.06;63.24;98249.34;4927868;28;20424;-90
2024/01/21 10:15:03;;;;;;;18.33;7.90;;;;;;;2.14;63.07;98248.53;4916976;28;20123;-89
2024/01/21 10:17:29;;;;;;;13.70;7.60;;;;;;;2.30;63.14;98257.97;4937297;29;20042;-89
2024/01/21 10:19:54;;;;;;;17.77;8.32;;;;;;;2.44;63.21;98259.84;4921378;29;20506;-90
2024/01/21 10:22:23;;;;;;;17.90;9.10;;;;;;;2.29;63.25;98217.81;4921905;29;20024;-89
2024/01/21 10:24:49;;;;;;;15.20;8.07;;;;;;;2.24;63.35;98207.22;4939138;29;20031;-88
2024/01/21 10:27:15;;;;;;;14.70;8.02;;;;;;;2.38;64.33;98236.59;4925532;28;20035;-89
2024/01/21 10:29:42;;;;;;;14.73;8.93;;;;;;;2.33;63.52;98231.97;4919117;29;20039;-89
2024/01/21 10:32:09;;;;;;;14.88;8.15;;;;;;;2.67;63.90;98259.13;4912712;29;20035;-89
2024/01/21 10:34:39;;;;;;;14.55;7.60;;;;;;;2.86;64.04;98223.69;4914859;29;20035;-89
2024/01/21 10:37:05;;;;;;;15.30;7.22;;;;;;;3.00;63.95;98217.84;4922888;29;20035;-89
2024/01/21 10:39:47;;;;;;;14.43;7.50;;;;;;;3.09;63.41;98210.88;4941412;29;20046;-89
2024/01/21 10:42:14;;;;;;;15.70;8.00;;;;;;;3.44;62.19;98252.47;4941093;29;20326;-90
2024/01/21 10:44:40;;;;;;;13.60;7.45;;;;;;;3.30;62.34;98220.56;4912723;29;20180;-89
2024/01/21 10:47:07;;;;;;;16.55;7.68;;;;;;;3.36;62.56;98230.16;4936142;29;20063;-89
2024/01/21 10:49:33;;;;;;;15.18;7.00;;;;;;;3.22;62.84;98197.44;4915274;29;20087;-89
2024/01/21 10:51:59;;;;;;;12.80;7.45;;;;;;;3.18;63.35;98207.28;4954801;29;20059;-90
2024/01/21 10:54:27;;;;;;;16.13;8.00;;;;;;;3.23;62.85;98181.03;4946408;29;20042;-91
2024/01/21 10:56:52;;;;;;;11.68;6.95;;;;;;;3.50;62.95;98219.13;4934960;29;20058;-89
2024/01/21 10:59:19;;;;;;;12.50;6.50;;;;;;;3.66;62.96;98189.06;4952003;29;20035;-90
2024/01/21 11:01:45;;;;;;;13.13;6.57;;;;;;;3.63;63.44;98185.03;5023331;23;20139;-90
2024/01/21 11:04:13;;;;;;;13.90;7.30;;;;;;;3.84;63.18;98184.38;4910092;29;20036;-88
2024/01/21 11:06:48;;;;;;;11.70;7.13;;;;;;;3.91;62.88;98184.47;4931623;29;20055;-87
2024/01/21 11:09:21;;;;;;;17.95;8.95;;;;;;;3.87;62.74;98178.06;4912093;29;20027;-89
2024/01/21 11:11:48;;;;;;;16.10;7.50;;;;;;;4.03;62.62;98172.75;4899059;29;20048;-86
2024/01/21 11:14:36;;;;;;;15.07;7.38;;;;;;;4.15;62.57;98174.88;4920595;29;20032;-87
2024/01/21 11:17:04;;;;;;;16.10;8.00;;;;;;;3.89;62.78;98161.47;4889534;29;20060;-87
2024/01/21 11:19:31;;;;;;;13.48;6.90;;;;;;;4.17;62.82;98162.63;4905750;29;20680;-88
2024/01/21 11:21:58;;;;;;;12.40;6.80;;;;;;;4.24;62.96;98163.50;4886290;29;20388;-89
2024/01/21 11:24:30;;;;;;;14.52;7.68;;;;;;;4.59;62.12;98176.63;4898105;29;20031;-88
2024/01/21 11:26:58;;;;;;;11.93;6.63;;;;;;;4.65;62.36;98178.50;4896002;29;20028;-87
2024/01/21 11:29:29;;;;;;;12.30;7.32;;;;;;;4.79;62.76;98174.28;4897659;29;21779;-88
2024/01/21 11:31:56;;;;;;;12.07;6.78;;;;;;;4.96;62.18;98172.25;4861237;29;20028;-87
2024/01/21 11:34:21;;;;;;;14.27;6.82;;;;;;;4.79;61.19;98164.75;4894037;29;20066;-86
2024/01/21 11:36:47;;;;;;;12.90;7.85;;;;;;;4.96;61.23;98183.38;4897417;29;20063;-85
2024/01/21 11:39:13;;;;;;;13.65;7.15;;;;;;;4.88;62.27;98199.78;4876372;29;20464;-86